Terminal Aerodrome Forecast
Issued by NWS

Home | Current Version | Previous Version | Text Only | Print | Product List | Glossary On
Versions: 1 2 3 4 5 6 7 8 9 10 11 12 13 14
000
FTUS44 KLIX 162330
TAFMSY
TAF
KMSY 162330Z 1700/1806 09007KT P6SM BKN025 BKN150
     FM170900 13007KT P6SM BKN020 OVC060 PROB30 1709/1714 4SM SHRA
      BKN015
     FM171400 17009KT 3SM SHRA BKN020 OVC040
     FM171800 18010KT 2SM SHRA BKN010 OVC020
     FM172100 18005KT 2SM SHRA BKN008 OVC070
     FM180000 16005KT P6SM BKN008 OVC070 PROB30 1800/1806 2SM SHRA
      OVC005=

USA.gov is the U.S. government's official web portal to all federal, state and local government web resources and services.